In Rescue
 
Open Full Screen Window  High Contrast Mode
Wind Gusting 16 knots
08
March 01, 2024 1:53 PM CST
Weather Information
Wind Direction
  180 °
Wind Speed
  08 kt (9 mph)
Wind Gust
  16 kt (18 mph)
Altimeter
29.71 in
Visibility
10 SM
Temperature
04° C
39° F
Dewpoint
-12° C
10° F
Humidity
30%
Sky Condition
Clear
VFR

METAR KCKC 011953Z AUTO 18008G16KT 10SM CLR 04/M12 A2971 RMK AO2

FAA Disclaimer: The data displayed is for advisory purposes only and is not to be used for flight planning or operations.